Ukiah, Oregon
Current Conditions -  °F | °C
As of 8:56 AM on Friday 24 Oct 2014 (Local Time) from KMEH Reporting Station
Overcast Overcast  
Wind Chill: 44°   Ceiling: 7500
Heat Index: 44°   Visibility: 9mi
Dew Point: 43°   Wind: 0mph
Humidity: 96%   Direction: NA
Pressure: 30.09"   Gusts: NA
Location:  45.13°N, 118.93°W
Report Text: KMEH 241556Z AUTO 00000KT 9SM SCT065 BKN075 OVC100 07/06 A3009 RMK AO2 RAB18E31 SLP196 P0000 T00670061
Loading
Personal Weather Stations






























Interactive Weather Map
Tropical Storm Tracking
New forecast layout! Learn more

10-Day Weather Forecast

Advertisements
Track Severe Weather on mobile